Time;durP1;ratioP1;P1;durP2;ratioP2;P2;SDS_P1;SDS_P2;PMS_P1;PMS_P2;Temp;Humidity;BMP_temperature;BMP_pressure;BME280_temperature;BME280_humidity;BME280_pressure;Samples;Min_cycle;Max_cycle;Signal;HPM_P1;HPM_P2
2022/07/02 00:04:28;;;;;;;10.8;13.8;;;;;;;18.8;100;98900;;;;
2022/07/02 00:15:28;;;;;;;11.7;14.8;;;;;;;18.6;100;98880;;;;
2022/07/02 00:25:28;;;;;;;11.7;14.8;;;;;;;18.5;100;98880;;;;
2022/07/02 00:36:28;;;;;;;11.7;14.8;;;;;;;18.4;100;98890;;;;
2022/07/02 00:46:28;;;;;;;9.6;11.6;;;;;;;18.3;100;98880;;;;
2022/07/02 00:57:28;;;;;;;9.6;11.6;;;;;;;18.3;100;98850;;;;
2022/07/02 01:18:28;;;;;;;9.2;13.1;;;;;;;18.2;100;98830;;;;
2022/07/02 01:29:28;;;;;;;9.2;13.1;;;;;;;18.3;100;98860;;;;
2022/07/02 01:39:28;;;;;;;9.2;13.1;;;;;;;18.2;100;98880;;;;
2022/07/02 01:49:28;;;;;;;8.7;12.9;;;;;;;18;100;98860;;;;
2022/07/02 02:00:29;;;;;;;8.7;12.9;;;;;;;18.1;100;98880;;;;
2022/07/02 02:11:28;;;;;;;8.7;12.9;;;;;;;18;100;98890;;;;
2022/07/02 02:21:28;;;;;;;9.1;12.3;;;;;;;17.9;100;98920;;;;
2022/07/02 02:31:28;;;;;;;9.1;12.3;;;;;;;17.8;100;98940;;;;
2022/07/02 02:42:28;;;;;;;9.1;12.3;;;;;;;17.9;100;98960;;;;
2022/07/02 02:52:28;;;;;;;11.5;16.1;;;;;;;17.8;100;98960;;;;
2022/07/02 03:02:28;;;;;;;11.5;16.1;;;;;;;17.7;100;98960;;;;
2022/07/02 03:13:28;;;;;;;12.4;16.6;;;;;;;17.7;100;98970;;;;
2022/07/02 03:23:28;;;;;;;12.4;16.6;;;;;;;17.3;100;98960;;;;
2022/07/02 03:33:28;;;;;;;12.4;16.6;;;;;;;17.4;100;98990;;;;
2022/07/02 03:43:28;;;;;;;12.7;16.5;;;;;;;17.4;100;99010;;;;
2022/07/02 03:54:28;;;;;;;12.7;16.5;;;;;;;17.2;100;99050;;;;
2022/07/02 04:04:28;;;;;;;12.7;16.5;;;;;;;17.2;100;99040;;;;
2022/07/02 04:15:28;;;;;;;10.1;12.5;;;;;;;17.2;100;99050;;;;
2022/07/02 04:25:28;;;;;;;10.1;12.5;;;;;;;17.2;100;99060;;;;
2022/07/02 04:35:28;;;;;;;10.1;12.5;;;;;;;17.2;100;99060;;;;
2022/07/02 04:45:28;;;;;;;12.8;15.9;;;;;;;17.1;100;99070;;;;
2022/07/02 04:55:28;;;;;;;12.8;15.9;;;;;;;17;100;99080;;;;
2022/07/02 05:06:28;;;;;;;12.8;15.9;;;;;;;17;100;99080;;;;
2022/07/02 05:17:28;;;;;;;14.2;17.8;;;;;;;16.9;100;99090;;;;
2022/07/02 05:27:28;;;;;;;14.2;17.8;;;;;;;16.9;100;99100;;;;
2022/07/02 05:38:28;;;;;;;14.2;17.8;;;;;;;16.9;100;99110;;;;
2022/07/02 05:48:28;;;;;;;17.6;22.7;;;;;;;17;100;99140;;;;
2022/07/02 05:58:28;;;;;;;17.6;22.7;;;;;;;16.9;100;99150;;;;
2022/07/02 06:08:28;;;;;;;17.6;22.7;;;;;;;16.9;100;99150;;;;
2022/07/02 06:19:28;;;;;;;18.7;23.5;;;;;;;16.9;100;99170;;;;
2022/07/02 06:29:28;;;;;;;18.7;23.5;;;;;;;16.8;100;99190;;;;
2022/07/02 06:40:28;;;;;;;18.7;23.5;;;;;;;16.8;100;99200;;;;
2022/07/02 06:50:28;;;;;;;16.7;20.4;;;;;;;16.9;100;99220;;;;
2022/07/02 07:00:28;;;;;;;16.7;20.4;;;;;;;17.1;100;99240;;;;
2022/07/02 07:11:28;;;;;;;16.7;20.4;;;;;;;17.1;100;99240;;;;
2022/07/02 07:21:28;;;;;;;16.9;20;;;;;;;17.1;100;99250;;;;
2022/07/02 07:32:28;;;;;;;16.9;20;;;;;;;17;100;99260;;;;
2022/07/02 07:43:28;;;;;;;15.1;18.7;;;;;;;17.1;100;99270;;;;
2022/07/02 07:53:28;;;;;;;15.1;18.7;;;;;;;17.1;100;99280;;;;
2022/07/02 08:04:29;;;;;;;15.1;18.7;;;;;;;17.3;100;99300;;;;
2022/07/02 08:14:28;;;;;;;13.5;17.4;;;;;;;17.2;100;99300;;;;
2022/07/02 08:25:30;;;;;;;13.5;17.4;;;;;;;17.3;100;99310;;;;
2022/07/02 08:36:28;;;;;;;13.5;17.4;;;;;;;17.7;100;99300;;;;
2022/07/02 08:57:28;;;;;;;14.5;19;;;;;;;18.1;100;99320;;;;
2022/07/02 09:08:28;;;;;;;14.5;19;;;;;;;18.1;100;99330;;;;
2022/07/02 09:18:28;;;;;;;12.1;16;;;;;;;18.2;100;99330;;;;
2022/07/02 09:29:28;;;;;;;12.1;16;;;;;;;18.1;100;99330;;;;
2022/07/02 09:40:28;;;;;;;12.1;16;;;;;;;18.1;100;99330;;;;
2022/07/02 09:51:28;;;;;;;9.8;11.9;;;;;;;18.5;100;99340;;;;
2022/07/02 10:01:28;;;;;;;9.8;11.9;;;;;;;18.5;100;99340;;;;
2022/07/02 10:11:28;;;;;;;9.8;11.9;;;;;;;18.4;100;99340;;;;
2022/07/02 10:22:28;;;;;;;11;16;;;;;;;18.3;100;99360;;;;
2022/07/02 10:32:28;;;;;;;11;16;;;;;;;18.2;100;99360;;;;
2022/07/02 10:43:29;;;;;;;11.2;15.3;;;;;;;18.2;100;99370;;;;
2022/07/02 10:54:28;;;;;;;11.2;15.3;;;;;;;18.6;100;99390;;;;
2022/07/02 11:05:28;;;;;;;11.2;15.3;;;;;;;18.5;100;99390;;;;
2022/07/02 11:16:28;;;;;;;12.3;14.7;;;;;;;18.6;100;99380;;;;
2022/07/02 11:26:28;;;;;;;12.3;14.7;;;;;;;18.8;100;99390;;;;
2022/07/02 11:37:28;;;;;;;12.3;14.7;;;;;;;19.2;100;99390;;;;
2022/07/02 11:47:28;;;;;;;9.8;12.1;;;;;;;19.8;100;99390;;;;
2022/07/02 11:58:28;;;;;;;9.8;12.1;;;;;;;19.5;100;99400;;;;
2022/07/02 12:09:28;;;;;;;9.8;12.1;;;;;;;19.2;100;99390;;;;
2022/07/02 12:19:28;;;;;;;;;;;;;;;;;;;;;
2022/07/02 12:30:04;;;;;;;8.7;15;;;;;;;19.5;100;99390;;;;
2022/07/02 12:39:28;;;;;;;8.7;15;;;;;;;19.8;100;99400;;;;
2022/07/02 12:50:28;;;;;;;7.6;9.7;;;;;;;19.9;100;99390;;;;
2022/07/02 13:01:28;;;;;;;7.6;9.7;;;;;;;20.5;100;99380;;;;
2022/07/02 13:12:28;;;;;;;7.6;9.7;;;;;;;20.6;100;99380;;;;
2022/07/02 13:22:28;;;;;;;7.3;10.1;;;;;;;21.3;100;99380;;;;
2022/07/02 13:33:28;;;;;;;7.3;10.1;;;;;;;22.6;100;99370;;;;
2022/07/02 13:44:28;;;;;;;5.8;9.7;;;;;;;22.6;100;99370;;;;
2022/07/02 13:54:28;;;;;;;5.8;9.7;;;;;;;22.7;100;99360;;;;
2022/07/02 14:05:28;;;;;;;5.8;9.7;;;;;;;22.3;100;99350;;;;
2022/07/02 14:16:28;;;;;;;5.5;7.9;;;;;;;21.2;100;99350;;;;
2022/07/02 14:27:28;;;;;;;5.5;7.9;;;;;;;20.8;100;99350;;;;
2022/07/02 14:37:29;;;;;;;5.5;7.9;;;;;;;21.1;100;99350;;;;
2022/07/02 14:48:29;;;;;;;5.7;11.8;;;;;;;21.5;100;99330;;;;
2022/07/02 14:58:28;;;;;;;5.7;11.8;;;;;;;22.5;100;99320;;;;
2022/07/02 15:19:28;;;;;;;6.1;8.7;;;;;;;22.7;100;99310;;;;
2022/07/02 15:30:28;;;;;;;6.1;8.7;;;;;;;22.8;100;99310;;;;
2022/07/02 15:40:28;;;;;;;6.1;8.7;;;;;;;22.5;100;99300;;;;
2022/07/02 15:50:28;;;;;;;5.2;8.3;;;;;;;22.8;100;99300;;;;
2022/07/02 16:00:28;;;;;;;5.2;8.3;;;;;;;22.8;100;99300;;;;
2022/07/02 16:11:28;;;;;;;5.2;8.3;;;;;;;22.2;100;99300;;;;
2022/07/02 16:21:28;;;;;;;4.6;7.8;;;;;;;22.6;100;99300;;;;
2022/07/02 16:32:28;;;;;;;4.6;7.8;;;;;;;22.5;100;99300;;;;
2022/07/02 16:42:28;;;;;;;4.6;7.8;;;;;;;21.9;100;99300;;;;
2022/07/02 16:53:28;;;;;;;5.3;7.8;;;;;;;21.4;100;99300;;;;
2022/07/02 17:03:28;;;;;;;5.3;7.8;;;;;;;21.1;100;99300;;;;
2022/07/02 17:14:28;;;;;;;5.7;9.7;;;;;;;20.9;100;99300;;;;
2022/07/02 17:24:28;;;;;;;5.7;9.7;;;;;;;20.7;100;99290;;;;
2022/07/02 17:35:28;;;;;;;5.7;9.7;;;;;;;20.5;100;99280;;;;
2022/07/02 17:46:28;;;;;;;5.3;8.5;;;;;;;20.5;100;99280;;;;
2022/07/02 17:57:28;;;;;;;5.3;8.5;;;;;;;20.3;100;99270;;;;
2022/07/02 18:08:29;;;;;;;5.3;8.5;;;;;;;20.3;100;99270;;;;
2022/07/02 18:18:28;;;;;;;5.6;9.3;;;;;;;20.3;100;99270;;;;
2022/07/02 18:28:28;;;;;;;5.6;9.3;;;;;;;20.1;100;99270;;;;
2022/07/02 18:38:28;;;;;;;5.6;9.3;;;;;;;20.1;100;99280;;;;
2022/07/02 18:49:28;;;;;;;5.9;8.9;;;;;;;19.9;100;99270;;;;
2022/07/02 18:59:28;;;;;;;5.9;8.9;;;;;;;19.5;100;99270;;;;
2022/07/02 19:10:28;;;;;;;5.9;8.9;;;;;;;19.3;100;99270;;;;
2022/07/02 19:20:28;;;;;;;6.5;9;;;;;;;19.1;100;99270;;;;
2022/07/02 19:31:28;;;;;;;6.5;9;;;;;;;18.8;100;99270;;;;
2022/07/02 19:41:28;;;;;;;6.5;9;;;;;;;18.4;100;99260;;;;
2022/07/02 19:52:28;;;;;;;11.5;15.1;;;;;;;18;100;99260;;;;
2022/07/02 20:03:28;;;;;;;11.5;15.1;;;;;;;17.6;100;99250;;;;
2022/07/02 20:13:28;;;;;;;13.8;16.8;;;;;;;17.3;100;99250;;;;
2022/07/02 20:24:28;;;;;;;13.8;16.8;;;;;;;17;100;99240;;;;
2022/07/02 20:34:28;;;;;;;13.8;16.8;;;;;;;16.7;100;99240;;;;
2022/07/02 20:45:28;;;;;;;10.8;12.6;;;;;;;16.5;100;99220;;;;
2022/07/02 20:55:28;;;;;;;10.8;12.6;;;;;;;16.2;100;99220;;;;
2022/07/02 21:06:28;;;;;;;10.8;12.6;;;;;;;16;100;99210;;;;
2022/07/02 21:16:28;;;;;;;9.3;11.3;;;;;;;15.8;100;99210;;;;
2022/07/02 21:26:28;;;;;;;9.3;11.3;;;;;;;15.6;100;99210;;;;
2022/07/02 21:37:28;;;;;;;9.3;11.3;;;;;;;15.4;100;99210;;;;
2022/07/02 21:47:28;;;;;;;11.6;13.2;;;;;;;15.2;100;99190;;;;
2022/07/02 21:57:28;;;;;;;11.6;13.2;;;;;;;15.1;100;99200;;;;
2022/07/02 22:07:28;;;;;;;11.6;13.2;;;;;;;14.9;100;99200;;;;
2022/07/02 22:18:28;;;;;;;13.2;16.1;;;;;;;14.7;100;99210;;;;
2022/07/02 22:28:28;;;;;;;13.2;16.1;;;;;;;14.7;100;99200;;;;
2022/07/02 22:39:28;;;;;;;13.2;16.1;;;;;;;14.6;100;99190;;;;
2022/07/02 22:49:28;;;;;;;13.1;15.5;;;;;;;14.5;100;99180;;;;
2022/07/02 23:00:28;;;;;;;13.1;15.5;;;;;;;14.5;100;99180;;;;
2022/07/02 23:10:28;;;;;;;13.1;15.5;;;;;;;14.4;100;99170;;;;
2022/07/02 23:20:28;;;;;;;12.8;16.5;;;;;;;14.5;100;99180;;;;
2022/07/02 23:31:28;;;;;;;12.8;16.5;;;;;;;14.6;100;99180;;;;
2022/07/02 23:41:28;;;;;;;12.8;16.5;;;;;;;14.7;100;99180;;;;
2022/07/02 23:52:28;;;;;;;11.4;13.2;;;;;;;14.8;100;99180;;;;
